Time;durP1;ratioP1;P1;durP2;ratioP2;P2;SDS_P1;SDS_P2;PMS_P1;PMS_P2;Temp;Humidity;BMP_temperature;BMP_pressure;BME280_temperature;BME280_humidity;BME280_pressure;Samples;Min_cycle;Max_cycle;Signal;HPM_P1;HPM_P2
2022/11/23 00:00:58;;;;;;;4.22;0.70;;;7.80;99.90;;;;;;5054505;28;20086;-77
2022/11/23 00:03:24;;;;;;;5.95;0.70;;;7.80;99.90;;;;;;5053744;28;20025;-76
2022/11/23 00:05:49;;;;;;;3.17;0.80;;;7.80;99.90;;;;;;5055449;28;20116;-76
2022/11/23 00:08:15;;;;;;;3.65;0.80;;;7.80;99.90;;;;;;5055073;28;20036;-77
2022/11/23 00:10:40;;;;;;;5.22;1.05;;;7.80;99.90;;;;;;5055174;28;20045;-76
2022/11/23 00:13:06;;;;;;;8.25;0.95;;;7.80;99.90;;;;;;5053581;28;20424;-77
2022/11/23 00:15:32;;;;;;;3.58;0.60;;;7.80;99.90;;;;;;5054226;28;20524;-77
2022/11/23 00:17:59;;;;;;;5.60;0.90;;;7.90;99.90;;;;;;5053790;28;20489;-77
2022/11/23 00:20:25;;;;;;;5.60;0.95;;;7.80;99.90;;;;;;5054495;28;20456;-77
2022/11/23 00:22:50;;;;;;;3.00;0.70;;;7.80;99.90;;;;;;5053230;28;20120;-77
2022/11/23 00:25:16;;;;;;;3.42;0.52;;;7.80;99.90;;;;;;5054536;28;20033;-77
2022/11/23 00:27:41;;;;;;;2.97;0.80;;;7.80;99.90;;;;;;5055012;28;20032;-77
2022/11/23 00:30:08;;;;;;;3.33;0.90;;;7.80;99.90;;;;;;5054134;28;20059;-76
2022/11/23 00:32:33;;;;;;;2.40;0.60;;;7.80;99.90;;;;;;5054814;28;20079;-76
2022/11/23 00:34:59;;;;;;;3.90;0.80;;;7.80;99.90;;;;;;5053769;28;20036;-76
2022/11/23 00:37:24;;;;;;;3.65;0.80;;;7.80;99.90;;;;;;5052822;28;20036;-75
2022/11/23 00:39:50;;;;;;;4.32;0.80;;;7.70;99.90;;;;;;5054619;28;20025;-76
2022/11/23 00:42:15;;;;;;;6.22;0.90;;;7.70;99.90;;;;;;5054021;28;20024;-76
2022/11/23 00:44:41;;;;;;;2.28;0.60;;;7.70;99.90;;;;;;5053319;28;20037;-76
2022/11/23 00:47:06;;;;;;;6.20;0.80;;;7.70;99.90;;;;;;5052968;28;20120;-76
2022/11/23 00:49:32;;;;;;;2.60;0.70;;;7.70;99.90;;;;;;5053110;28;20386;-77
2022/11/23 00:51:58;;;;;;;5.15;0.90;;;7.70;99.90;;;;;;5053403;28;20079;-77
2022/11/23 00:54:23;;;;;;;1.75;0.70;;;7.70;99.90;;;;;;5052765;28;20363;-77
2022/11/23 00:56:49;;;;;;;2.03;0.50;;;7.70;99.90;;;;;;5054543;28;20079;-77
2022/11/23 00:59:14;;;;;;;0.88;0.57;;;7.60;99.90;;;;;;5052934;28;20524;-76
2022/11/23 01:01:40;;;;;;;2.75;0.70;;;7.60;99.90;;;;;;5054589;28;20029;-77
2022/11/23 01:04:07;;;;;;;2.92;0.85;;;7.60;99.90;;;;;;5053468;28;20067;-77
2022/11/23 01:06:35;;;;;;;1.80;0.60;;;7.50;99.90;;;;;;5054266;28;20025;-77
2022/11/23 01:09:10;;;;;;;4.50;0.85;;;7.60;99.90;;;;;;5054482;28;20031;-76
2022/11/23 01:11:36;;;;;;;3.47;0.70;;;7.60;99.90;;;;;;5053796;28;20045;-76
2022/11/23 01:14:02;;;;;;;5.10;0.75;;;7.60;99.90;;;;;;5052964;28;20410;-76
2022/11/23 01:16:30;;;;;;;4.65;0.98;;;7.60;99.90;;;;;;5051979;28;20036;-77
2022/11/23 01:18:59;;;;;;;2.85;0.85;;;7.60;99.90;;;;;;5054048;28;20497;-76
2022/11/23 01:21:25;;;;;;;5.50;0.98;;;7.60;99.90;;;;;;5051919;28;20021;-76
2022/11/23 01:23:51;;;;;;;2.78;0.80;;;7.50;99.90;;;;;;5053790;28;20489;-76
2022/11/23 01:26:17;;;;;;;6.32;1.35;;;7.60;99.90;;;;;;5051601;28;20025;-77
2022/11/23 01:28:43;;;;;;;4.13;1.35;;;7.50;99.90;;;;;;5053919;28;20029;-77
2022/11/23 01:31:11;;;;;;;2.88;0.60;;;7.50;99.90;;;;;;5053434;28;20033;-76
2022/11/23 01:33:37;;;;;;;4.45;0.70;;;7.60;99.90;;;;;;5053332;28;20473;-77
2022/11/23 01:36:20;;;;;;;3.80;1.00;;;7.60;99.90;;;;;;5052435;28;20035;-76
2022/11/23 01:38:47;;;;;;;5.30;0.80;;;7.60;99.90;;;;;;5052449;28;20116;-76
2022/11/23 01:41:21;;;;;;;2.38;0.70;;;7.60;99.90;;;;;;5051735;28;20040;-76
2022/11/23 01:43:47;;;;;;;4.72;0.80;;;7.60;99.90;;;;;;5053687;28;20037;-76
2022/11/23 01:46:13;;;;;;;4.40;0.70;;;7.70;99.90;;;;;;5053135;28;20032;-76
2022/11/23 01:48:38;;;;;;;2.78;0.63;;;7.70;99.90;;;;;;5051984;28;20363;-76
2022/11/23 01:51:09;;;;;;;4.05;0.80;;;7.80;99.90;;;;;;5051913;28;20036;-76
2022/11/23 01:53:36;;;;;;;2.20;0.80;;;7.80;99.90;;;;;;5052873;28;20021;-76
2022/11/23 01:56:05;;;;;;;3.88;0.70;;;7.80;99.90;;;;;;5053063;28;20262;-76
2022/11/23 01:58:35;;;;;;;2.47;0.80;;;7.90;99.90;;;;;;5052345;28;20469;-77
2022/11/23 02:01:01;;;;;;;1.40;0.40;;;7.90;99.90;;;;;;5051820;28;20025;-77
2022/11/23 02:03:30;;;;;;;2.70;0.47;;;7.90;99.90;;;;;;5051128;28;20073;-76
2022/11/23 02:06:00;;;;;;;2.80;0.60;;;7.90;99.90;;;;;;5051734;28;20029;-76
2022/11/23 02:08:27;;;;;;;6.10;0.73;;;7.90;99.90;;;;;;5052361;28;20063;-75
2022/11/23 02:10:55;;;;;;;3.28;0.70;;;8.00;99.90;;;;;;5051256;28;20049;-76
2022/11/23 02:13:23;;;;;;;3.13;0.80;;;8.00;99.90;;;;;;5051060;28;20037;-76
2022/11/23 02:15:50;;;;;;;4.15;0.70;;;8.00;99.90;;;;;;5052944;28;20043;-76
2022/11/23 02:18:20;;;;;;;6.65;0.57;;;8.00;99.90;;;;;;5051003;28;20029;-77
2022/11/23 02:20:46;;;;;;;3.72;0.98;;;8.00;99.90;;;;;;5052002;28;20078;-76
2022/11/23 02:23:14;;;;;;;4.05;0.90;;;8.00;99.90;;;;;;5051133;28;20033;-77
2022/11/23 02:25:44;;;;;;;5.60;1.00;;;8.00;99.90;;;;;;5052782;28;20044;-77
2022/11/23 02:28:23;;;;;;;4.22;1.00;;;8.00;99.90;;;;;;5051670;28;20065;-77
2022/11/23 02:30:52;;;;;;;5.72;0.70;;;8.00;99.90;;;;;;5051580;28;20025;-77
2022/11/23 02:33:17;;;;;;;7.68;1.00;;;8.00;99.90;;;;;;5051027;28;20029;-77
2022/11/23 02:35:55;;;;;;;2.95;0.63;;;8.00;99.90;;;;;;5051513;28;20028;-77
2022/11/23 02:38:23;;;;;;;2.60;0.65;;;8.00;99.90;;;;;;5051171;28;20036;-77
2022/11/23 02:40:49;;;;;;;4.47;0.88;;;8.00;99.90;;;;;;5051403;28;20057;-77
2022/11/23 02:43:14;;;;;;;3.00;0.68;;;8.10;99.90;;;;;;5050584;28;20071;-77
2022/11/23 02:45:55;;;;;;;1.33;0.50;;;8.10;99.90;;;;;;5051344;28;20032;-77
2022/11/23 02:48:21;;;;;;;3.65;0.60;;;8.00;99.90;;;;;;5051118;28;20028;-78
2022/11/23 02:50:47;;;;;;;4.75;0.90;;;8.00;99.90;;;;;;5052958;28;20029;-77
2022/11/23 02:53:13;;;;;;;4.93;0.60;;;8.00;99.90;;;;;;5051607;28;20100;-77
2022/11/23 02:55:38;;;;;;;5.93;0.80;;;8.00;99.90;;;;;;5051122;28;20052;-77
2022/11/23 02:58:05;;;;;;;2.83;0.70;;;8.00;99.90;;;;;;5051706;28;20052;-77
2022/11/23 03:00:31;;;;;;;2.88;0.70;;;8.00;99.90;;;;;;5051213;28;20029;-77
2022/11/23 03:02:59;;;;;;;2.67;0.52;;;8.00;99.90;;;;;;5051437;28;20116;-77
2022/11/23 03:05:25;;;;;;;1.55;0.60;;;7.90;99.90;;;;;;5051945;28;20040;-77
2022/11/23 03:07:50;;;;;;;4.63;0.90;;;7.90;99.90;;;;;;5051379;28;20425;-77
2022/11/23 03:10:17;;;;;;;5.47;1.25;;;7.90;99.90;;;;;;5052041;28;20025;-77
2022/11/23 03:12:42;;;;;;;2.50;0.60;;;7.80;99.90;;;;;;5051286;28;20057;-77
2022/11/23 03:15:08;;;;;;;5.20;0.60;;;7.80;99.90;;;;;;5051498;28;20079;-77
2022/11/23 03:17:34;;;;;;;4.25;0.90;;;7.70;99.90;;;;;;5050740;28;20035;-77
2022/11/23 03:19:59;;;;;;;3.38;0.68;;;7.70;99.90;;;;;;5051249;28;20025;-77
2022/11/23 03:22:25;;;;;;;3.85;0.68;;;7.70;99.90;;;;;;5051384;28;20026;-77
2022/11/23 03:24:51;;;;;;;2.30;0.50;;;7.70;99.90;;;;;;5051299;28;20079;-77
2022/11/23 03:27:17;;;;;;;3.55;0.60;;;7.70;99.90;;;;;;5051961;28;20021;-76
2022/11/23 03:29:42;;;;;;;3.75;0.70;;;7.70;99.90;;;;;;5052153;28;20486;-77
2022/11/23 03:32:08;;;;;;;3.00;0.60;;;7.60;99.90;;;;;;5051194;28;20055;-77
2022/11/23 03:34:33;;;;;;;4.18;0.60;;;7.60;99.90;;;;;;5051641;28;20032;-77
2022/11/23 03:36:59;;;;;;;2.97;0.80;;;7.50;99.90;;;;;;5052338;28;20028;-77
2022/11/23 03:39:24;;;;;;;2.88;0.70;;;7.50;99.90;;;;;;5050261;28;20421;-76
2022/11/23 03:41:50;;;;;;;4.63;0.90;;;7.50;99.90;;;;;;5050866;28;20029;-77
2022/11/23 03:44:16;;;;;;;2.85;0.57;;;7.50;99.90;;;;;;5051995;28;20045;-76
2022/11/23 03:46:41;;;;;;;3.53;0.60;;;7.50;99.90;;;;;;5050413;28;20029;-77
2022/11/23 03:49:07;;;;;;;5.03;0.88;;;7.50;99.90;;;;;;5051747;28;20068;-77
2022/11/23 03:51:32;;;;;;;3.58;0.80;;;7.50;99.90;;;;;;5050293;28;20035;-76
2022/11/23 03:53:58;;;;;;;3.53;0.70;;;7.50;99.90;;;;;;5050755;28;20434;-77
2022/11/23 03:56:23;;;;;;;1.95;0.55;;;7.40;99.90;;;;;;5051492;28;20029;-77
2022/11/23 03:58:49;;;;;;;3.00;0.70;;;7.40;99.90;;;;;;5055343;28;20474;-77
2022/11/23 04:01:15;;;;;;;4.03;0.73;;;7.40;99.90;;;;;;5055163;28;20025;-77
2022/11/23 04:03:40;;;;;;;3.28;0.75;;;7.40;99.90;;;;;;5053449;28;20033;-77
2022/11/23 04:06:06;;;;;;;3.10;0.57;;;7.30;99.90;;;;;;5054038;28;20425;-77
2022/11/23 04:08:31;;;;;;;2.53;0.60;;;7.30;99.90;;;;;;5054757;28;20032;-76
2022/11/23 04:10:58;;;;;;;3.90;0.75;;;7.20;99.90;;;;;;5055109;28;20397;-77
2022/11/23 04:13:24;;;;;;;2.28;1.00;;;7.20;99.90;;;;;;5053428;28;20037;-76
2022/11/23 04:15:49;;;;;;;5.22;1.00;;;7.10;99.90;;;;;;5054594;28;20032;-77
2022/11/23 04:18:16;;;;;;;2.33;0.95;;;7.10;99.90;;;;;;5054304;28;20144;-77
2022/11/23 04:20:42;;;;;;;13.23;4.45;;;7.10;99.90;;;;;;5054658;28;20447;-77
2022/11/23 04:23:07;;;;;;;20.42;6.63;;;7.10;99.90;;;;;;5055038;28;20037;-77
2022/11/23 04:25:33;;;;;;;8.30;3.08;;;7.10;99.90;;;;;;5053331;28;20021;-77
2022/11/23 04:27:58;;;;;;;3.10;1.60;;;7.10;99.90;;;;;;5055223;28;20470;-76
2022/11/23 04:30:24;;;;;;;3.72;0.95;;;7.10;99.90;;;;;;5053132;28;20386;-77
2022/11/23 04:32:50;;;;;;;4.72;0.90;;;7.20;99.90;;;;;;5053990;28;20044;-76
2022/11/23 04:35:15;;;;;;;5.88;1.15;;;7.20;99.90;;;;;;5053947;28;20025;-77
2022/11/23 04:37:41;;;;;;;3.88;1.10;;;7.10;99.90;;;;;;5054492;28;20158;-77
2022/11/23 04:40:07;;;;;;;7.35;1.92;;;7.10;99.90;;;;;;5053861;28;20033;-77
2022/11/23 04:42:33;;;;;;;8.17;1.87;;;7.00;99.90;;;;;;5054713;28;20029;-76
2022/11/23 04:44:58;;;;;;;6.85;2.30;;;7.00;99.90;;;;;;5054565;28;20036;-76
2022/11/23 04:47:24;;;;;;;3.50;1.58;;;6.90;99.90;;;;;;5052651;28;20020;-76
2022/11/23 04:49:50;;;;;;;1.65;0.82;;;6.90;99.90;;;;;;5054516;28;20053;-76
2022/11/23 04:52:16;;;;;;;5.03;1.10;;;6.80;99.90;;;;;;5054598;28;20147;-76
2022/11/23 04:54:41;;;;;;;3.67;0.90;;;6.80;99.90;;;;;;5053843;28;20571;-76
2022/11/23 04:57:08;;;;;;;3.97;0.98;;;6.70;99.90;;;;;;5053345;28;20029;-76
2022/11/23 04:59:33;;;;;;;2.13;0.77;;;6.60;99.90;;;;;;5052561;28;20025;-76
2022/11/23 05:01:59;;;;;;;3.60;0.93;;;6.70;99.90;;;;;;5053555;28;20028;-77
2022/11/23 05:04:25;;;;;;;3.25;1.00;;;6.60;99.90;;;;;;5052981;28;20037;-76
2022/11/23 05:06:50;;;;;;;2.53;0.75;;;6.60;99.90;;;;;;5053835;28;20060;-78
2022/11/23 05:09:16;;;;;;;2.67;0.70;;;6.60;99.90;;;;;;5052716;28;20029;-77
2022/11/23 05:11:41;;;;;;;3.40;1.00;;;6.50;99.90;;;;;;5053503;28;20358;-77
2022/11/23 05:14:07;;;;;;;3.27;0.80;;;6.50;99.90;;;;;;5054389;28;20037;-77
2022/11/23 05:16:33;;;;;;;3.28;1.20;;;6.40;99.90;;;;;;5052405;28;20043;-77
2022/11/23 05:18:58;;;;;;;2.37;0.90;;;6.30;99.90;;;;;;5053244;28;20063;-77
2022/11/23 05:21:24;;;;;;;1.87;0.53;;;6.10;99.90;;;;;;5052682;28;20029;-77
2022/11/23 05:23:49;;;;;;;3.30;0.80;;;6.10;99.90;;;;;;5052886;28;20565;-77
2022/11/23 05:26:15;;;;;;;2.73;0.80;;;6.20;99.90;;;;;;5053074;28;20028;-77
2022/11/23 05:28:41;;;;;;;3.70;1.43;;;6.20;99.90;;;;;;5052241;28;20029;-76
2022/11/23 05:31:07;;;;;;;2.88;0.90;;;6.20;99.90;;;;;;5052860;28;20029;-76
2022/11/23 05:33:32;;;;;;;2.17;0.60;;;6.10;99.90;;;;;;5053147;28;20025;-76
2022/11/23 05:35:58;;;;;;;2.83;1.10;;;6.10;99.90;;;;;;5053701;28;20032;-76
2022/11/23 05:38:23;;;;;;;2.43;0.70;;;6.00;99.90;;;;;;5053482;28;20127;-76
2022/11/23 05:40:49;;;;;;;3.73;0.70;;;6.00;99.90;;;;;;5053407;28;20029;-77
2022/11/23 05:43:14;;;;;;;3.67;1.40;;;6.00;99.90;;;;;;5052589;28;20037;-77
2022/11/23 05:45:40;;;;;;;3.87;0.73;;;5.90;99.90;;;;;;5053051;28;20078;-77
2022/11/23 05:48:06;;;;;;;4.40;1.43;;;5.90;99.90;;;;;;5053791;28;20458;-77
2022/11/23 05:50:31;;;;;;;2.87;0.60;;;5.90;99.90;;;;;;5051666;28;20028;-77
2022/11/23 05:52:58;;;;;;;3.53;0.80;;;5.80;99.90;;;;;;5052329;28;20037;-77
2022/11/23 05:55:25;;;;;;;4.00;0.67;;;5.80;99.90;;;;;;5052331;28;20543;-76
2022/11/23 05:57:50;;;;;;;1.90;0.70;;;5.80;99.90;;;;;;5052792;28;20036;-77
2022/11/23 06:00:17;;;;;;;5.30;1.17;;;5.70;99.90;;;;;;5052110;28;20082;-77
2022/11/23 06:02:42;;;;;;;4.63;1.47;;;5.70;99.90;;;;;;5051561;28;20107;-77
2022/11/23 06:05:08;;;;;;;3.57;1.80;;;5.70;99.90;;;;;;5053030;28;20474;-77
2022/11/23 06:07:34;;;;;;;4.63;1.80;;;5.70;99.90;;;;;;5052856;28;20458;-77
2022/11/23 06:10:01;;;;;;;4.73;2.20;;;5.70;99.90;;;;;;5052004;28;20040;-77
2022/11/23 06:12:28;;;;;;;4.63;2.00;;;5.60;99.90;;;;;;5052982;28;20060;-77
2022/11/23 06:14:54;;;;;;;9.90;2.37;;;5.50;99.90;;;;;;5053179;28;20025;-77
2022/11/23 06:17:19;;;;;;;3.30;1.30;;;5.50;99.90;;;;;;5052142;28;20163;-77
2022/11/23 06:19:45;;;;;;;4.00;1.40;;;5.50;99.90;;;;;;5051267;28;20171;-77
2022/11/23 06:22:11;;;;;;;4.37;1.80;;;5.50;99.90;;;;;;5053191;28;20110;-77
2022/11/23 06:24:36;;;;;;;6.80;2.03;;;5.40;99.90;;;;;;5051075;28;20041;-77
2022/11/23 06:27:02;;;;;;;3.67;1.37;;;5.40;99.90;;;;;;5052021;28;20047;-77
2022/11/23 06:29:28;;;;;;;4.03;1.53;;;5.30;99.90;;;;;;5052353;28;20025;-76
2022/11/23 06:31:53;;;;;;;2.33;1.30;;;5.20;99.90;;;;;;5052637;28;20109;-77
2022/11/23 06:34:19;;;;;;;2.87;1.10;;;5.10;99.90;;;;;;5051502;28;20390;-77
2022/11/23 06:36:45;;;;;;;3.53;1.07;;;5.10;99.90;;;;;;5052061;28;20079;-76
2022/11/23 06:39:10;;;;;;;4.90;0.90;;;5.10;99.90;;;;;;5051419;28;20025;-76
2022/11/23 06:41:36;;;;;;;2.43;0.87;;;5.10;99.90;;;;;;5051716;28;20029;-76
2022/11/23 06:44:01;;;;;;;4.83;1.00;;;5.00;99.90;;;;;;5052743;28;20033;-77
2022/11/23 06:46:27;;;;;;;4.87;0.90;;;5.00;99.90;;;;;;5051488;28;20031;-76
2022/11/23 06:48:52;;;;;;;2.73;0.90;;;5.00;99.90;;;;;;5052082;28;20029;-76
2022/11/23 06:51:18;;;;;;;3.23;0.90;;;4.90;99.90;;;;;;5051599;28;20032;-77
2022/11/23 06:53:44;;;;;;;2.57;0.97;;;5.00;99.90;;;;;;5051929;28;20032;-77
2022/11/23 06:56:09;;;;;;;3.50;0.90;;;4.90;99.90;;;;;;5051633;28;20032;-77
2022/11/23 06:58:35;;;;;;;3.10;0.93;;;4.90;99.90;;;;;;5050671;28;20029;-76
2022/11/23 07:01:04;;;;;;;2.10;0.73;;;4.80;99.90;;;;;;5052479;28;20063;-76
2022/11/23 07:03:30;;;;;;;4.33;0.90;;;4.80;99.90;;;;;;5051953;28;20033;-76
2022/11/23 07:05:55;;;;;;;3.77;0.80;;;4.80;99.90;;;;;;5052113;28;20029;-76
2022/11/23 07:08:21;;;;;;;4.87;0.60;;;4.80;99.90;;;;;;5052607;28;20386;-77
2022/11/23 07:10:47;;;;;;;14.53;6.43;;;4.70;99.90;;;;;;5049888;28;20490;-77
2022/11/23 07:13:13;;;;;;;6.00;1.97;;;4.70;99.90;;;;;;5050979;28;20043;-76
2022/11/23 07:15:39;;;;;;;4.03;1.17;;;4.70;99.90;;;;;;5050367;28;20108;-76
2022/11/23 07:18:06;;;;;;;4.00;1.30;;;4.70;99.90;;;;;;5051080;28;20032;-77
2022/11/23 07:20:32;;;;;;;5.33;1.07;;;4.80;99.90;;;;;;5050662;28;20091;-77
2022/11/23 07:23:06;;;;;;;3.60;1.10;;;4.80;99.90;;;;;;5050771;28;20055;-77
2022/11/23 07:25:34;;;;;;;2.30;1.57;;;4.80;99.90;;;;;;5051422;28;20057;-76
2022/11/23 07:28:01;;;;;;;3.83;1.87;;;4.80;99.90;;;;;;5046388;28;20584;-77
2022/11/23 07:30:28;;;;;;;6.10;1.60;;;4.80;99.90;;;;;;5044971;28;20030;-76
2022/11/23 07:33:07;;;;;;;5.33;1.90;;;4.80;99.90;;;;;;5053999;28;20070;-76
2022/11/23 07:35:33;;;;;;;4.37;1.30;;;4.80;99.90;;;;;;5052653;28;20025;-76
2022/11/23 07:37:59;;;;;;;1.90;1.20;;;4.80;99.90;;;;;;5054400;28;20028;-75
2022/11/23 07:40:25;;;;;;;2.90;0.90;;;4.80;99.90;;;;;;5052599;28;20032;-76
2022/11/23 07:42:51;;;;;;;2.80;0.90;;;4.80;99.90;;;;;;5067779;28;20052;-77
2022/11/23 07:45:17;;;;;;;3.63;1.03;;;4.90;99.90;;;;;;5057174;28;20163;-76
2022/11/23 07:47:43;;;;;;;3.03;1.30;;;4.90;99.90;;;;;;5068174;28;20025;-76
2022/11/23 07:50:10;;;;;;;6.03;1.10;;;5.00;99.90;;;;;;5066969;28;20096;-76
2022/11/23 07:52:37;;;;;;;2.20;0.80;;;4.90;99.90;;;;;;5053406;28;20029;-76
2022/11/23 07:55:03;;;;;;;2.73;1.07;;;4.90;99.90;;;;;;5071565;28;20025;-76
2022/11/23 07:57:29;;;;;;;6.37;1.80;;;5.00;99.90;;;;;;5054507;28;20025;-76
2022/11/23 07:59:55;;;;;;;3.63;1.23;;;4.90;99.90;;;;;;5036296;28;20446;-76
2022/11/23 08:02:20;;;;;;;7.30;1.20;;;5.00;99.90;;;;;;5063333;28;20028;-76
2022/11/23 08:04:46;;;;;;;4.90;1.00;;;5.00;99.90;;;;;;5058093;28;20025;-77
2022/11/23 08:07:11;;;;;;;2.90;0.93;;;5.10;99.90;;;;;;5059056;28;20027;-77
2022/11/23 08:09:37;;;;;;;4.27;1.07;;;5.10;99.90;;;;;;5056965;28;20052;-76
2022/11/23 08:12:04;;;;;;;3.07;1.30;;;5.20;99.90;;;;;;5063095;28;20405;-77
2022/11/23 08:14:29;;;;;;;6.90;1.33;;;5.20;99.90;;;;;;5056030;28;20037;-77
2022/11/23 08:16:55;;;;;;;3.23;1.33;;;5.20;99.90;;;;;;5053161;28;20079;-77
2022/11/23 08:19:21;;;;;;;4.70;1.40;;;5.30;99.90;;;;;;5068431;28;20064;-78
2022/11/23 08:21:46;;;;;;;5.00;1.70;;;5.30;99.90;;;;;;5053053;28;20116;-77
2022/11/23 08:24:12;;;;;;;4.70;1.40;;;5.40;99.90;;;;;;5053896;28;20029;-78
2022/11/23 08:26:37;;;;;;;7.07;1.60;;;5.50;99.90;;;;;;5053813;28;20029;-77
2022/11/23 08:29:04;;;;;;;5.47;1.70;;;5.50;99.90;;;;;;5049269;28;20058;-77
2022/11/23 08:31:30;;;;;;;2.93;1.33;;;5.60;99.90;;;;;;5055859;28;20032;-77
2022/11/23 08:33:56;;;;;;;5.77;1.50;;;5.60;99.90;;;;;;5052724;28;20481;-76
2022/11/23 08:36:21;;;;;;;5.43;1.90;;;5.70;99.90;;;;;;5057187;28;20418;-77
2022/11/23 08:38:50;;;;;;;4.23;1.60;;;5.70;99.90;;;;;;5053862;28;20033;-77
2022/11/23 08:41:19;;;;;;;5.63;1.57;;;5.80;99.90;;;;;;5053029;28;20017;-77
2022/11/23 08:43:48;;;;;;;6.57;1.77;;;5.80;99.90;;;;;;5054579;28;20044;-77
2022/11/23 08:46:14;;;;;;;5.10;2.03;;;5.90;99.90;;;;;;5063702;28;20614;-77
2022/11/23 08:48:40;;;;;;;8.27;1.80;;;6.00;99.90;;;;;;5060593;28;20108;-77
2022/11/23 08:51:06;;;;;;;5.90;1.53;;;6.00;99.90;;;;;;5069890;28;20528;-78
2022/11/23 08:53:32;;;;;;;5.33;1.90;;;6.10;99.90;;;;;;5057286;28;20497;-78
2022/11/23 08:56:01;;;;;;;7.07;1.60;;;6.20;99.90;;;;;;5068354;28;20017;-78
2022/11/23 08:58:27;;;;;;;5.97;1.67;;;6.30;99.90;;;;;;5059599;28;20017;-78
2022/11/23 09:00:52;;;;;;;6.83;1.70;;;6.30;99.90;;;;;;5053877;28;20083;-78
2022/11/23 09:03:18;;;;;;;6.27;1.50;;;6.40;99.90;;;;;;5056139;28;20043;-75
2022/11/23 09:05:44;;;;;;;5.83;1.80;;;6.50;99.90;;;;;;5054611;28;20056;-75
2022/11/23 09:08:10;;;;;;;5.90;2.00;;;6.60;99.90;;;;;;5060753;28;20040;-77
2022/11/23 09:10:36;;;;;;;7.50;1.80;;;6.70;99.90;;;;;;5060613;28;20033;-75
2022/11/23 09:13:02;;;;;;;5.53;2.07;;;6.80;99.90;;;;;;5054988;28;20056;-75
2022/11/23 09:15:27;;;;;;;8.50;2.00;;;6.90;99.90;;;;;;5052824;28;20382;-75
2022/11/23 09:17:53;;;;;;;4.60;1.60;;;6.90;99.90;;;;;;5051947;28;20032;-75
2022/11/23 09:20:18;;;;;;;5.50;1.67;;;7.00;99.90;;;;;;5053291;28;20021;-77
2022/11/23 09:22:50;;;;;;;5.87;1.80;;;7.10;99.90;;;;;;5066207;28;20474;-77
2022/11/23 09:25:16;;;;;;;6.47;1.83;;;7.10;99.90;;;;;;5054408;28;20029;-76
2022/11/23 09:27:41;;;;;;;4.57;1.90;;;7.10;99.90;;;;;;5052360;28;20381;-77
2022/11/23 09:30:07;;;;;;;7.70;2.43;;;7.10;99.90;;;;;;5054037;28;20082;-77
2022/11/23 09:32:33;;;;;;;24.37;10.00;;;7.10;99.90;;;;;;5064217;28;20027;-76
2022/11/23 09:34:59;;;;;;;17.40;8.47;;;7.20;99.90;;;;;;5057357;28;20025;-76
2022/11/23 09:37:24;;;;;;;10.63;4.55;;;7.20;99.90;;;;;;5071801;28;20082;-77
2022/11/23 09:39:50;;;;;;;6.25;2.45;;;7.20;99.90;;;;;;5067093;28;20466;-77
2022/11/23 09:42:22;;;;;;;5.90;1.98;;;7.30;99.90;;;;;;5061077;28;20029;-75
2022/11/23 09:44:51;;;;;;;6.63;1.50;;;7.40;99.90;;;;;;5057893;28;20478;-76
2022/11/23 09:47:22;;;;;;;4.45;1.40;;;7.50;99.90;;;;;;5068335;28;20457;-77
2022/11/23 09:50:01;;;;;;;4.32;1.08;;;7.50;99.90;;;;;;5057081;28;20025;-76
2022/11/23 09:52:29;;;;;;;5.97;0.90;;;7.60;99.90;;;;;;5062127;28;20025;-76
2022/11/23 09:54:59;;;;;;;4.07;1.02;;;7.70;99.90;;;;;;5066830;28;20036;-76
2022/11/23 09:57:30;;;;;;;7.53;1.10;;;7.90;99.90;;;;;;5056388;28;20029;-76
2022/11/23 10:00:04;;;;;;;3.95;1.15;;;8.00;99.90;;;;;;5053889;28;20529;-76
2022/11/23 10:02:35;;;;;;;5.10;1.10;;;8.20;99.90;;;;;;5062905;28;20043;-76
2022/11/23 10:05:03;;;;;;;5.93;1.33;;;8.30;99.90;;;;;;5055366;28;20032;-77
2022/11/23 10:07:45;;;;;;;4.30;0.80;;;8.40;99.90;;;;;;5067698;28;20116;-75
2022/11/23 10:10:37;;;;;;;3.55;0.73;;;8.30;99.90;;;;;;5060442;28;20033;-76
2022/11/23 10:13:08;;;;;;;6.15;1.10;;;8.40;99.90;;;;;;5057042;28;20079;-77
2022/11/23 10:15:42;;;;;;;4.00;1.00;;;8.50;99.90;;;;;;5036467;28;20033;-77
2022/11/23 10:18:26;;;;;;;2.63;0.75;;;8.60;99.90;;;;;;5055612;28;20032;-76
2022/11/23 10:21:05;;;;;;;2.95;0.75;;;8.70;99.90;;;;;;5067497;28;20096;-77
2022/11/23 10:23:59;;;;;;;7.97;0.77;;;8.80;99.90;;;;;;5051184;28;20125;-76
2022/11/23 10:26:45;;;;;;;6.07;0.88;;;8.90;99.90;;;;;;5059773;28;20028;-75
2022/11/23 10:29:30;;;;;;;7.40;1.63;;;9.00;99.90;;;;;;5055545;28;20475;-76
2022/11/23 10:31:57;;;;;;;5.32;1.00;;;9.00;99.90;;;;;;5065140;28;20025;-76
2022/11/23 10:34:50;;;;;;;4.65;1.00;;;9.00;99.90;;;;;;5061437;28;20588;-76
2022/11/23 10:37:16;;;;;;;3.28;0.52;;;9.10;99.90;;;;;;5054058;28;20482;-76
2022/11/23 10:39:42;;;;;;;8.05;1.30;;;9.20;99.90;;;;;;5065759;28;20067;-77
2022/11/23 10:42:37;;;;;;;4.45;0.68;;;9.20;99.90;;;;;;5058767;28;20441;-75
2022/11/23 10:45:04;;;;;;;5.47;0.70;;;9.20;99.90;;;;;;5055253;28;20131;-75
2022/11/23 10:47:34;;;;;;;2.97;0.70;;;9.30;99.90;;;;;;5067163;28;20021;-75
2022/11/23 10:50:00;;;;;;;5.50;1.10;;;9.30;99.90;;;;;;5058000;28;20204;-76
2022/11/23 10:52:29;;;;;;;7.53;0.75;;;9.40;99.90;;;;;;5061205;28;20029;-76
2022/11/23 10:55:05;;;;;;;4.10;1.05;;;9.50;99.90;;;;;;5066430;28;20048;-75
2022/11/23 10:57:35;;;;;;;4.90;0.93;;;9.50;99.90;;;;;;5055130;28;20021;-76
2022/11/23 11:00:16;;;;;;;3.25;0.60;;;9.50;99.90;;;;;;5048111;28;20024;-76
2022/11/23 11:02:46;;;;;;;4.75;0.70;;;9.50;99.90;;;;;;5050199;28;20025;-76
2022/11/23 11:05:34;;;;;;;3.92;0.95;;;9.60;99.90;;;;;;5067386;28;20051;-75
2022/11/23 11:08:33;;;;;;;2.92;0.63;;;9.70;99.90;;;;;;5061170;28;20056;-76
2022/11/23 11:11:07;;;;;;;5.13;1.02;;;9.80;99.90;;;;;;5036610;28;20399;-75
2022/11/23 11:13:47;;;;;;;5.35;0.70;;;9.80;99.90;;;;;;5072803;28;20032;-75
2022/11/23 11:16:32;;;;;;;3.25;0.65;;;9.80;99.90;;;;;;5064696;28;20033;-76
2022/11/23 11:19:19;;;;;;;3.97;0.80;;;9.90;99.90;;;;;;5060384;28;20029;-75
2022/11/23 11:21:44;;;;;;;5.60;0.82;;;9.90;99.90;;;;;;5045244;28;20060;-75
2022/11/23 11:24:17;;;;;;;1.92;0.77;;;9.90;99.90;;;;;;5072207;28;20284;-76
2022/11/23 11:26:52;;;;;;;4.55;0.57;;;9.90;99.90;;;;;;5060695;28;20371;-76
2022/11/23 11:29:38;;;;;;;5.72;0.60;;;10.00;99.90;;;;;;5055700;28;20025;-76
2022/11/23 11:32:17;;;;;;;2.17;0.60;;;10.00;99.90;;;;;;5066127;28;20031;-76
2022/11/23 11:35:02;;;;;;;5.05;1.00;;;10.00;99.90;;;;;;5068062;28;20024;-77
2022/11/23 11:37:43;;;;;;;4.22;0.80;;;10.00;99.90;;;;;;5057598;28;20025;-76
2022/11/23 11:40:15;;;;;;;6.78;1.10;;;10.00;99.90;;;;;;5074023;28;20470;-76
2022/11/23 11:43:12;;;;;;;3.35;0.60;;;10.00;99.90;;;;;;5061449;28;20033;-77
2022/11/23 11:45:43;;;;;;;4.07;0.88;;;10.10;99.90;;;;;;5042465;28;20033;-75
2022/11/23 11:48:16;;;;;;;3.30;0.52;;;10.20;99.90;;;;;;5065229;28;20376;-76
2022/11/23 11:50:55;;;;;;;2.28;0.50;;;10.20;99.90;;;;;;5067922;28;20024;-76
2022/11/23 11:53:37;;;;;;;4.05;0.70;;;10.40;99.90;;;;;;5057556;28;20036;-76
2022/11/23 11:56:06;;;;;;;;;;;10.60;99.90;;;;;;5066844;28;20029;-75
2022/11/23 11:58:34;;;;;;;4.65;0.77;;;10.80;99.90;;;;;;5058432;28;20011;-76
2022/11/23 12:01:11;;;;;;;4.55;0.80;;;11.00;99.90;;;;;;5053564;28;20033;-76
2022/11/23 12:03:50;;;;;;;6.90;0.73;;;11.20;99.90;;;;;;5043499;28;20466;-76
2022/11/23 12:06:36;;;;;;;3.13;0.50;;;11.50;99.90;;;;;;5065545;28;20028;-76
2022/11/23 12:09:06;;;;;;;2.90;0.43;;;11.80;99.90;;;;;;5053087;28;20036;-76
2022/11/23 12:11:32;;;;;;;2.40;0.50;;;12.00;99.90;;;;;;5069597;28;20049;-76
2022/11/23 12:14:03;;;;;;;3.75;0.77;;;12.10;99.90;;;;;;5060967;28;20037;-76
2022/11/23 12:16:46;;;;;;;4.95;0.60;;;12.30;99.90;;;;;;5062352;28;20028;-76
2022/11/23 12:19:31;;;;;;;6.65;0.98;;;12.50;99.90;;;;;;5069571;28;20032;-76
2022/11/23 12:22:08;;;;;;;1.17;0.52;;;12.70;99.90;;;;;;5061012;28;20081;-76
2022/11/23 12:24:56;;;;;;;1.70;0.45;;;12.90;99.90;;;;;;5072256;28;20040;-76
2022/11/23 12:27:46;;;;;;;2.92;0.50;;;13.10;99.90;;;;;;5056710;28;20051;-76
2022/11/23 12:30:43;;;;;;;3.17;0.60;;;13.10;99.70;;;;;;5051059;28;20401;-76
2022/11/23 12:33:31;;;;;;;5.32;1.00;;;12.90;98.90;;;;;;5056901;28;20029;-77
2022/11/23 12:36:33;;;;;;;2.67;0.65;;;13.00;98.80;;;;;;5065912;28;20379;-76
2022/11/23 12:39:17;;;;;;;4.75;0.60;;;13.10;98.70;;;;;;5067941;28;20035;-76
2022/11/23 12:42:20;;;;;;;1.80;0.70;;;13.10;99.00;;;;;;5042398;28;20036;-77
2022/11/23 12:45:00;;;;;;;4.25;0.77;;;13.00;98.80;;;;;;5051496;28;20093;-76
2022/11/23 12:47:31;;;;;;;3.65;0.73;;;13.10;98.70;;;;;;5054070;28;20025;-76
2022/11/23 12:50:26;;;;;;;3.47;0.70;;;13.10;98.50;;;;;;5052438;28;20064;-76
2022/11/23 12:53:16;;;;;;;4.40;0.55;;;13.00;97.80;;;;;;5067060;28;20032;-76
2022/11/23 12:55:58;;;;;;;6.00;0.75;;;12.90;98.70;;;;;;5043857;28;20083;-77
2022/11/23 12:58:29;;;;;;;5.53;1.00;;;12.80;98.70;;;;;;5052919;28;20078;-79
2022/11/23 13:01:01;;;;;;;7.85;1.95;;;12.80;99.20;;;;;;5061336;28;20035;-74
2022/11/23 13:03:45;;;;;;;;;;;12.80;99.10;;;;;;5062722;28;20184;-78
2022/11/23 13:06:33;;;;;;;3.60;0.70;;;13.00;98.20;;;;;;5062944;28;20373;-77